sensor_id;sensor_type;location;lat;lon;timestamp;P1;durP1;ratioP1;P2;durP2;ratioP2
4533;SDS011;2279;51.448;7.306;2023-07-09T00:00:22;8.17;;;4.80;;
4533;SDS011;2279;51.448;7.306;2023-07-09T00:02:48;5.37;;;4.87;;
4533;SDS011;2279;51.448;7.306;2023-07-09T00:05:15;6.80;;;4.30;;
4533;SDS011;2279;51.448;7.306;2023-07-09T00:07:42;6.47;;;5.60;;
4533;SDS011;2279;51.448;7.306;2023-07-09T00:10:13;6.20;;;4.27;;
4533;SDS011;2279;51.448;7.306;2023-07-09T00:12:39;5.90;;;5.00;;
4533;SDS011;2279;51.448;7.306;2023-07-09T00:15:05;6.60;;;4.07;;
4533;SDS011;2279;51.448;7.306;2023-07-09T00:17:34;5.67;;;4.73;;
4533;SDS011;2279;51.448;7.306;2023-07-09T00:20:02;9.97;;;5.50;;
4533;SDS011;2279;51.448;7.306;2023-07-09T00:22:30;5.17;;;4.40;;
4533;SDS011;2279;51.448;7.306;2023-07-09T00:24:56;6.17;;;5.27;;
4533;SDS011;2279;51.448;7.306;2023-07-09T00:27:23;5.80;;;4.43;;
4533;SDS011;2279;51.448;7.306;2023-07-09T00:29:51;5.17;;;4.30;;
4533;SDS011;2279;51.448;7.306;2023-07-09T00:32:18;5.80;;;4.27;;
4533;SDS011;2279;51.448;7.306;2023-07-09T00:34:46;6.83;;;5.00;;
4533;SDS011;2279;51.448;7.306;2023-07-09T00:37:16;4.97;;;4.30;;
4533;SDS011;2279;51.448;7.306;2023-07-09T00:39:44;5.27;;;4.77;;
4533;SDS011;2279;51.448;7.306;2023-07-09T00:42:13;7.53;;;4.77;;
4533;SDS011;2279;51.448;7.306;2023-07-09T00:44:42;4.67;;;4.10;;
4533;SDS011;2279;51.448;7.306;2023-07-09T00:47:14;5.67;;;3.90;;
4533;SDS011;2279;51.448;7.306;2023-07-09T00:49:42;6.60;;;4.60;;
4533;SDS011;2279;51.448;7.306;2023-07-09T00:52:25;7.03;;;4.50;;
4533;SDS011;2279;51.448;7.306;2023-07-09T00:54:54;5.17;;;4.20;;
4533;SDS011;2279;51.448;7.306;2023-07-09T00:57:22;7.90;;;4.80;;
4533;SDS011;2279;51.448;7.306;2023-07-09T00:59:50;5.33;;;4.60;;
4533;SDS011;2279;51.448;7.306;2023-07-09T01:02:17;5.40;;;4.80;;
4533;SDS011;2279;51.448;7.306;2023-07-09T01:04:48;7.10;;;5.10;;
4533;SDS011;2279;51.448;7.306;2023-07-09T01:07:14;4.90;;;4.50;;
4533;SDS011;2279;51.448;7.306;2023-07-09T01:09:41;5.30;;;4.33;;
4533;SDS011;2279;51.448;7.306;2023-07-09T01:12:08;6.30;;;4.70;;
4533;SDS011;2279;51.448;7.306;2023-07-09T01:14:34;6.80;;;4.93;;
4533;SDS011;2279;51.448;7.306;2023-07-09T01:17:02;12.90;;;5.10;;
4533;SDS011;2279;51.448;7.306;2023-07-09T01:19:30;7.13;;;5.03;;
4533;SDS011;2279;51.448;7.306;2023-07-09T01:21:57;5.77;;;4.70;;
4533;SDS011;2279;51.448;7.306;2023-07-09T01:27:10;6.97;;;5.03;;
4533;SDS011;2279;51.448;7.306;2023-07-09T01:29:36;6.40;;;4.60;;
4533;SDS011;2279;51.448;7.306;2023-07-09T01:32:03;7.23;;;4.93;;
4533;SDS011;2279;51.448;7.306;2023-07-09T01:34:31;5.23;;;4.73;;
4533;SDS011;2279;51.448;7.306;2023-07-09T01:36:57;6.60;;;4.87;;
4533;SDS011;2279;51.448;7.306;2023-07-09T01:39:23;5.80;;;4.80;;
4533;SDS011;2279;51.448;7.306;2023-07-09T01:41:49;6.53;;;4.70;;
4533;SDS011;2279;51.448;7.306;2023-07-09T01:44:15;6.30;;;4.90;;
4533;SDS011;2279;51.448;7.306;2023-07-09T01:46:41;5.37;;;4.90;;
4533;SDS011;2279;51.448;7.306;2023-07-09T01:49:10;9.40;;;4.67;;
4533;SDS011;2279;51.448;7.306;2023-07-09T01:51:36;9.23;;;5.10;;
4533;SDS011;2279;51.448;7.306;2023-07-09T01:54:02;6.40;;;4.80;;
4533;SDS011;2279;51.448;7.306;2023-07-09T01:56:28;5.33;;;4.50;;
4533;SDS011;2279;51.448;7.306;2023-07-09T01:58:54;6.67;;;4.93;;
4533;SDS011;2279;51.448;7.306;2023-07-09T02:01:26;8.33;;;5.43;;
4533;SDS011;2279;51.448;7.306;2023-07-09T02:03:52;6.57;;;5.00;;
4533;SDS011;2279;51.448;7.306;2023-07-09T02:06:18;6.33;;;4.60;;
4533;SDS011;2279;51.448;7.306;2023-07-09T02:08:44;5.43;;;4.53;;
4533;SDS011;2279;51.448;7.306;2023-07-09T02:11:10;5.90;;;5.30;;
4533;SDS011;2279;51.448;7.306;2023-07-09T02:13:36;6.40;;;4.37;;
4533;SDS011;2279;51.448;7.306;2023-07-09T02:16:02;7.40;;;5.10;;
4533;SDS011;2279;51.448;7.306;2023-07-09T02:18:29;8.63;;;4.90;;
4533;SDS011;2279;51.448;7.306;2023-07-09T02:20:55;5.20;;;4.73;;
4533;SDS011;2279;51.448;7.306;2023-07-09T02:23:25;5.47;;;4.10;;
4533;SDS011;2279;51.448;7.306;2023-07-09T02:25:51;7.00;;;5.67;;
4533;SDS011;2279;51.448;7.306;2023-07-09T02:28:17;8.03;;;4.97;;
4533;SDS011;2279;51.448;7.306;2023-07-09T02:30:43;11.00;;;5.30;;
4533;SDS011;2279;51.448;7.306;2023-07-09T02:33:09;6.33;;;4.60;;
4533;SDS011;2279;51.448;7.306;2023-07-09T02:35:35;6.33;;;5.33;;
4533;SDS011;2279;51.448;7.306;2023-07-09T02:38:01;8.50;;;5.70;;
4533;SDS011;2279;51.448;7.306;2023-07-09T02:40:27;11.93;;;5.87;;
4533;SDS011;2279;51.448;7.306;2023-07-09T02:42:53;7.17;;;5.50;;
4533;SDS011;2279;51.448;7.306;2023-07-09T02:45:19;7.03;;;5.07;;
4533;SDS011;2279;51.448;7.306;2023-07-09T02:47:45;8.70;;;5.47;;
4533;SDS011;2279;51.448;7.306;2023-07-09T02:50:11;6.90;;;5.70;;
4533;SDS011;2279;51.448;7.306;2023-07-09T02:52:37;6.13;;;5.20;;
4533;SDS011;2279;51.448;7.306;2023-07-09T02:55:03;8.83;;;5.53;;
4533;SDS011;2279;51.448;7.306;2023-07-09T02:57:30;10.67;;;5.60;;
4533;SDS011;2279;51.448;7.306;2023-07-09T02:59:55;6.70;;;4.50;;
4533;SDS011;2279;51.448;7.306;2023-07-09T03:02:21;5.83;;;4.70;;
4533;SDS011;2279;51.448;7.306;2023-07-09T03:04:47;8.37;;;5.27;;
4533;SDS011;2279;51.448;7.306;2023-07-09T03:07:13;7.37;;;4.47;;
4533;SDS011;2279;51.448;7.306;2023-07-09T03:09:39;7.20;;;5.90;;
4533;SDS011;2279;51.448;7.306;2023-07-09T03:12:05;5.13;;;4.63;;
4533;SDS011;2279;51.448;7.306;2023-07-09T03:14:32;11.50;;;5.60;;
4533;SDS011;2279;51.448;7.306;2023-07-09T03:16:58;8.40;;;5.20;;
4533;SDS011;2279;51.448;7.306;2023-07-09T03:19:24;6.43;;;5.50;;
4533;SDS011;2279;51.448;7.306;2023-07-09T03:21:50;6.40;;;5.37;;
4533;SDS011;2279;51.448;7.306;2023-07-09T03:24:16;6.27;;;5.07;;
4533;SDS011;2279;51.448;7.306;2023-07-09T03:26:43;7.43;;;5.60;;
4533;SDS011;2279;51.448;7.306;2023-07-09T03:29:09;8.13;;;4.70;;
4533;SDS011;2279;51.448;7.306;2023-07-09T03:31:35;7.17;;;5.20;;
4533;SDS011;2279;51.448;7.306;2023-07-09T03:34:01;8.30;;;5.80;;
4533;SDS011;2279;51.448;7.306;2023-07-09T03:36:27;9.60;;;5.30;;
4533;SDS011;2279;51.448;7.306;2023-07-09T03:38:53;12.13;;;5.43;;
4533;SDS011;2279;51.448;7.306;2023-07-09T03:41:19;8.23;;;5.27;;
4533;SDS011;2279;51.448;7.306;2023-07-09T03:43:45;8.10;;;5.60;;
4533;SDS011;2279;51.448;7.306;2023-07-09T03:46:11;8.17;;;5.27;;
4533;SDS011;2279;51.448;7.306;2023-07-09T03:48:37;8.60;;;5.83;;
4533;SDS011;2279;51.448;7.306;2023-07-09T03:51:04;6.87;;;5.37;;
4533;SDS011;2279;51.448;7.306;2023-07-09T03:53:30;10.47;;;6.20;;
4533;SDS011;2279;51.448;7.306;2023-07-09T03:55:56;10.80;;;6.20;;
4533;SDS011;2279;51.448;7.306;2023-07-09T03:58:23;8.27;;;6.03;;
4533;SDS011;2279;51.448;7.306;2023-07-09T04:00:50;14.07;;;8.13;;
4533;SDS011;2279;51.448;7.306;2023-07-09T04:03:16;10.93;;;6.83;;
4533;SDS011;2279;51.448;7.306;2023-07-09T04:05:42;9.70;;;6.10;;
4533;SDS011;2279;51.448;7.306;2023-07-09T04:08:08;10.00;;;6.07;;
4533;SDS011;2279;51.448;7.306;2023-07-09T04:10:34;8.90;;;6.20;;
4533;SDS011;2279;51.448;7.306;2023-07-09T04:13:00;10.90;;;6.90;;
4533;SDS011;2279;51.448;7.306;2023-07-09T04:15:26;11.10;;;6.10;;
4533;SDS011;2279;51.448;7.306;2023-07-09T04:17:52;10.83;;;5.57;;
4533;SDS011;2279;51.448;7.306;2023-07-09T04:20:18;8.53;;;5.33;;
4533;SDS011;2279;51.448;7.306;2023-07-09T04:22:44;6.67;;;5.53;;
4533;SDS011;2279;51.448;7.306;2023-07-09T04:25:10;11.37;;;6.20;;
4533;SDS011;2279;51.448;7.306;2023-07-09T04:27:37;6.73;;;5.83;;
4533;SDS011;2279;51.448;7.306;2023-07-09T04:30:03;7.90;;;5.67;;
4533;SDS011;2279;51.448;7.306;2023-07-09T04:32:30;6.50;;;5.57;;
4533;SDS011;2279;51.448;7.306;2023-07-09T04:34:56;6.00;;;5.40;;
4533;SDS011;2279;51.448;7.306;2023-07-09T04:37:22;8.63;;;5.47;;
4533;SDS011;2279;51.448;7.306;2023-07-09T04:39:48;8.23;;;6.10;;
4533;SDS011;2279;51.448;7.306;2023-07-09T04:42:15;9.43;;;5.37;;
4533;SDS011;2279;51.448;7.306;2023-07-09T04:44:41;7.47;;;5.60;;
4533;SDS011;2279;51.448;7.306;2023-07-09T04:47:07;8.33;;;6.23;;
4533;SDS011;2279;51.448;7.306;2023-07-09T04:49:33;11.77;;;6.57;;
4533;SDS011;2279;51.448;7.306;2023-07-09T04:51:59;12.20;;;6.87;;
4533;SDS011;2279;51.448;7.306;2023-07-09T04:54:26;9.73;;;6.47;;
4533;SDS011;2279;51.448;7.306;2023-07-09T04:56:52;7.70;;;6.70;;
4533;SDS011;2279;51.448;7.306;2023-07-09T04:59:18;17.27;;;8.33;;
4533;SDS011;2279;51.448;7.306;2023-07-09T05:01:45;20.83;;;10.60;;
4533;SDS011;2279;51.448;7.306;2023-07-09T05:04:11;22.50;;;12.20;;
4533;SDS011;2279;51.448;7.306;2023-07-09T05:06:36;26.67;;;12.30;;
4533;SDS011;2279;51.448;7.306;2023-07-09T05:09:03;25.20;;;13.10;;
4533;SDS011;2279;51.448;7.306;2023-07-09T05:11:29;32.73;;;11.37;;
4533;SDS011;2279;51.448;7.306;2023-07-09T05:13:55;23.10;;;10.10;;
4533;SDS011;2279;51.448;7.306;2023-07-09T05:16:21;16.43;;;10.63;;
4533;SDS011;2279;51.448;7.306;2023-07-09T05:18:47;19.00;;;9.30;;
4533;SDS011;2279;51.448;7.306;2023-07-09T05:21:14;14.97;;;8.87;;
4533;SDS011;2279;51.448;7.306;2023-07-09T05:23:40;14.40;;;7.50;;
4533;SDS011;2279;51.448;7.306;2023-07-09T05:26:06;8.27;;;7.23;;
4533;SDS011;2279;51.448;7.306;2023-07-09T05:28:32;8.33;;;6.47;;
4533;SDS011;2279;51.448;7.306;2023-07-09T05:30:58;13.73;;;7.80;;
4533;SDS011;2279;51.448;7.306;2023-07-09T05:33:24;10.47;;;8.43;;
4533;SDS011;2279;51.448;7.306;2023-07-09T05:35:50;18.97;;;8.53;;
4533;SDS011;2279;51.448;7.306;2023-07-09T05:38:16;10.07;;;7.60;;
4533;SDS011;2279;51.448;7.306;2023-07-09T05:40:42;10.70;;;7.80;;
4533;SDS011;2279;51.448;7.306;2023-07-09T05:43:09;20.10;;;8.50;;
4533;SDS011;2279;51.448;7.306;2023-07-09T05:45:35;13.40;;;6.67;;
4533;SDS011;2279;51.448;7.306;2023-07-09T05:48:01;6.87;;;5.67;;
4533;SDS011;2279;51.448;7.306;2023-07-09T05:50:27;9.20;;;5.90;;
4533;SDS011;2279;51.448;7.306;2023-07-09T05:52:54;10.60;;;5.73;;
4533;SDS011;2279;51.448;7.306;2023-07-09T05:55:20;9.30;;;5.40;;
4533;SDS011;2279;51.448;7.306;2023-07-09T05:57:46;6.40;;;5.20;;
4533;SDS011;2279;51.448;7.306;2023-07-09T06:00:12;7.53;;;5.67;;
4533;SDS011;2279;51.448;7.306;2023-07-09T06:02:38;16.20;;;6.27;;
4533;SDS011;2279;51.448;7.306;2023-07-09T06:05:04;11.20;;;6.63;;
4533;SDS011;2279;51.448;7.306;2023-07-09T06:07:34;7.30;;;6.20;;
4533;SDS011;2279;51.448;7.306;2023-07-09T06:10:00;6.60;;;5.53;;
4533;SDS011;2279;51.448;7.306;2023-07-09T06:12:26;10.70;;;6.60;;
4533;SDS011;2279;51.448;7.306;2023-07-09T06:14:52;13.97;;;5.50;;
4533;SDS011;2279;51.448;7.306;2023-07-09T06:17:18;8.43;;;5.70;;
4533;SDS011;2279;51.448;7.306;2023-07-09T06:19:44;10.23;;;6.90;;
4533;SDS011;2279;51.448;7.306;2023-07-09T06:22:10;6.50;;;5.80;;
4533;SDS011;2279;51.448;7.306;2023-07-09T06:24:36;7.30;;;6.30;;
4533;SDS011;2279;51.448;7.306;2023-07-09T06:27:01;8.43;;;6.23;;
4533;SDS011;2279;51.448;7.306;2023-07-09T06:29:27;6.70;;;6.00;;
4533;SDS011;2279;51.448;7.306;2023-07-09T06:31:53;13.13;;;6.90;;
4533;SDS011;2279;51.448;7.306;2023-07-09T06:34:19;8.03;;;6.20;;
4533;SDS011;2279;51.448;7.306;2023-07-09T06:36:45;6.97;;;6.27;;
4533;SDS011;2279;51.448;7.306;2023-07-09T06:39:11;6.40;;;5.80;;
4533;SDS011;2279;51.448;7.306;2023-07-09T06:41:37;6.57;;;5.80;;
4533;SDS011;2279;51.448;7.306;2023-07-09T06:44:06;8.80;;;7.37;;
4533;SDS011;2279;51.448;7.306;2023-07-09T06:46:32;8.53;;;5.90;;
4533;SDS011;2279;51.448;7.306;2023-07-09T06:48:59;6.67;;;5.83;;
4533;SDS011;2279;51.448;7.306;2023-07-09T06:51:25;6.37;;;5.77;;
4533;SDS011;2279;51.448;7.306;2023-07-09T06:53:51;6.53;;;5.23;;
4533;SDS011;2279;51.448;7.306;2023-07-09T06:56:17;7.10;;;6.27;;
4533;SDS011;2279;51.448;7.306;2023-07-09T06:58:43;8.73;;;6.37;;
4533;SDS011;2279;51.448;7.306;2023-07-09T07:01:11;8.67;;;6.30;;
4533;SDS011;2279;51.448;7.306;2023-07-09T07:03:37;9.23;;;6.77;;
4533;SDS011;2279;51.448;7.306;2023-07-09T07:06:03;12.60;;;7.27;;
4533;SDS011;2279;51.448;7.306;2023-07-09T07:08:31;6.40;;;5.43;;
4533;SDS011;2279;51.448;7.306;2023-07-09T07:10:58;6.67;;;6.07;;
4533;SDS011;2279;51.448;7.306;2023-07-09T07:13:38;7.50;;;5.47;;
4533;SDS011;2279;51.448;7.306;2023-07-09T07:16:06;12.43;;;6.13;;
4533;SDS011;2279;51.448;7.306;2023-07-09T07:18:32;7.73;;;6.50;;
4533;SDS011;2279;51.448;7.306;2023-07-09T07:20:58;10.33;;;7.47;;
4533;SDS011;2279;51.448;7.306;2023-07-09T07:23:24;8.10;;;5.87;;
4533;SDS011;2279;51.448;7.306;2023-07-09T07:25:50;9.67;;;6.43;;
4533;SDS011;2279;51.448;7.306;2023-07-09T07:28:17;8.73;;;6.07;;
4533;SDS011;2279;51.448;7.306;2023-07-09T07:30:43;11.43;;;6.37;;
4533;SDS011;2279;51.448;7.306;2023-07-09T07:33:09;7.50;;;6.00;;
4533;SDS011;2279;51.448;7.306;2023-07-09T07:35:35;9.13;;;6.27;;
4533;SDS011;2279;51.448;7.306;2023-07-09T07:38:02;7.77;;;5.73;;
4533;SDS011;2279;51.448;7.306;2023-07-09T07:40:28;9.13;;;6.40;;
4533;SDS011;2279;51.448;7.306;2023-07-09T07:42:54;7.50;;;6.20;;
4533;SDS011;2279;51.448;7.306;2023-07-09T07:45:20;7.93;;;6.43;;
4533;SDS011;2279;51.448;7.306;2023-07-09T07:47:46;6.17;;;5.57;;
4533;SDS011;2279;51.448;7.306;2023-07-09T07:50:13;8.20;;;5.80;;
4533;SDS011;2279;51.448;7.306;2023-07-09T07:52:39;8.87;;;6.23;;
4533;SDS011;2279;51.448;7.306;2023-07-09T07:55:05;7.30;;;6.60;;
4533;SDS011;2279;51.448;7.306;2023-07-09T07:57:32;8.03;;;6.37;;
4533;SDS011;2279;51.448;7.306;2023-07-09T07:59:58;11.70;;;6.83;;
4533;SDS011;2279;51.448;7.306;2023-07-09T08:02:24;11.03;;;6.87;;
4533;SDS011;2279;51.448;7.306;2023-07-09T08:04:50;9.70;;;6.83;;
4533;SDS011;2279;51.448;7.306;2023-07-09T08:07:17;8.00;;;6.50;;
4533;SDS011;2279;51.448;7.306;2023-07-09T08:09:43;6.97;;;6.30;;
4533;SDS011;2279;51.448;7.306;2023-07-09T08:12:10;10.43;;;7.47;;
4533;SDS011;2279;51.448;7.306;2023-07-09T08:14:37;8.63;;;6.10;;
4533;SDS011;2279;51.448;7.306;2023-07-09T08:17:03;7.83;;;7.00;;
4533;SDS011;2279;51.448;7.306;2023-07-09T08:19:30;9.93;;;7.07;;
4533;SDS011;2279;51.448;7.306;2023-07-09T08:21:56;8.00;;;6.37;;
4533;SDS011;2279;51.448;7.306;2023-07-09T08:24:22;8.40;;;6.40;;
4533;SDS011;2279;51.448;7.306;2023-07-09T08:26:48;7.67;;;6.70;;
4533;SDS011;2279;51.448;7.306;2023-07-09T08:29:14;8.30;;;6.57;;
4533;SDS011;2279;51.448;7.306;2023-07-09T08:31:40;9.83;;;7.00;;
4533;SDS011;2279;51.448;7.306;2023-07-09T08:34:07;8.27;;;7.00;;
4533;SDS011;2279;51.448;7.306;2023-07-09T08:36:33;7.77;;;7.03;;
4533;SDS011;2279;51.448;7.306;2023-07-09T08:39:01;8.63;;;6.30;;
4533;SDS011;2279;51.448;7.306;2023-07-09T08:41:42;7.30;;;6.10;;
4533;SDS011;2279;51.448;7.306;2023-07-09T08:44:28;10.83;;;6.37;;
4533;SDS011;2279;51.448;7.306;2023-07-09T08:47:00;6.13;;;5.40;;
4533;SDS011;2279;51.448;7.306;2023-07-09T08:54:51;7.63;;;5.73;;
4533;SDS011;2279;51.448;7.306;2023-07-09T08:57:21;6.77;;;6.17;;
4533;SDS011;2279;51.448;7.306;2023-07-09T08:59:49;9.23;;;6.40;;
4533;SDS011;2279;51.448;7.306;2023-07-09T09:02:30;6.63;;;5.10;;
4533;SDS011;2279;51.448;7.306;2023-07-09T09:04:57;7.87;;;5.70;;
4533;SDS011;2279;51.448;7.306;2023-07-09T09:07:28;9.10;;;6.00;;
4533;SDS011;2279;51.448;7.306;2023-07-09T09:09:58;8.30;;;5.40;;
4533;SDS011;2279;51.448;7.306;2023-07-09T09:12:28;7.80;;;5.40;;
4533;SDS011;2279;51.448;7.306;2023-07-09T09:14:58;9.90;;;6.10;;
4533;SDS011;2279;51.448;7.306;2023-07-09T09:17:25;6.67;;;5.73;;
4533;SDS011;2279;51.448;7.306;2023-07-09T09:19:57;6.20;;;5.60;;
4533;SDS011;2279;51.448;7.306;2023-07-09T09:22:25;6.70;;;5.63;;
4533;SDS011;2279;51.448;7.306;2023-07-09T09:27:29;8.33;;;5.40;;
4533;SDS011;2279;51.448;7.306;2023-07-09T09:29:55;8.70;;;5.40;;
4533;SDS011;2279;51.448;7.306;2023-07-09T09:32:26;6.73;;;5.40;;
4533;SDS011;2279;51.448;7.306;2023-07-09T09:34:52;7.30;;;5.40;;
4533;SDS011;2279;51.448;7.306;2023-07-09T09:37:23;7.40;;;5.67;;
4533;SDS011;2279;51.448;7.306;2023-07-09T09:39:50;6.93;;;6.10;;
4533;SDS011;2279;51.448;7.306;2023-07-09T09:42:16;5.67;;;4.80;;
4533;SDS011;2279;51.448;7.306;2023-07-09T09:44:45;8.30;;;5.40;;
4533;SDS011;2279;51.448;7.306;2023-07-09T09:47:11;6.00;;;4.73;;
4533;SDS011;2279;51.448;7.306;2023-07-09T09:49:38;9.03;;;5.60;;
4533;SDS011;2279;51.448;7.306;2023-07-09T09:52:06;6.33;;;5.73;;
4533;SDS011;2279;51.448;7.306;2023-07-09T09:54:36;5.73;;;5.20;;
4533;SDS011;2279;51.448;7.306;2023-07-09T09:57:14;5.93;;;5.47;;
4533;SDS011;2279;51.448;7.306;2023-07-09T09:59:41;7.20;;;5.30;;
4533;SDS011;2279;51.448;7.306;2023-07-09T10:02:17;7.00;;;5.50;;
4533;SDS011;2279;51.448;7.306;2023-07-09T10:04:44;6.80;;;4.83;;
4533;SDS011;2279;51.448;7.306;2023-07-09T10:07:10;8.57;;;5.90;;
4533;SDS011;2279;51.448;7.306;2023-07-09T10:09:47;6.83;;;5.40;;
4533;SDS011;2279;51.448;7.306;2023-07-09T10:12:31;6.17;;;4.87;;
4533;SDS011;2279;51.448;7.306;2023-07-09T10:22:50;5.53;;;5.03;;
4533;SDS011;2279;51.448;7.306;2023-07-09T10:25:16;6.10;;;5.37;;
4533;SDS011;2279;51.448;7.306;2023-07-09T10:27:54;5.40;;;4.90;;
4533;SDS011;2279;51.448;7.306;2023-07-09T10:30:32;11.47;;;5.23;;
4533;SDS011;2279;51.448;7.306;2023-07-09T10:33:05;8.60;;;5.03;;
4533;SDS011;2279;51.448;7.306;2023-07-09T10:35:51;5.90;;;5.40;;
4533;SDS011;2279;51.448;7.306;2023-07-09T10:38:30;5.60;;;5.03;;
4533;SDS011;2279;51.448;7.306;2023-07-09T10:40:59;5.50;;;4.87;;
4533;SDS011;2279;51.448;7.306;2023-07-09T10:45:59;5.20;;;4.77;;
4533;SDS011;2279;51.448;7.306;2023-07-09T10:50:57;8.10;;;4.43;;
4533;SDS011;2279;51.448;7.306;2023-07-09T10:53:37;6.43;;;5.20;;
4533;SDS011;2279;51.448;7.306;2023-07-09T10:56:09;8.53;;;5.03;;
4533;SDS011;2279;51.448;7.306;2023-07-09T10:58:39;6.50;;;4.40;;
4533;SDS011;2279;51.448;7.306;2023-07-09T11:01:07;6.40;;;4.33;;
4533;SDS011;2279;51.448;7.306;2023-07-09T11:03:38;5.30;;;4.63;;
4533;SDS011;2279;51.448;7.306;2023-07-09T11:06:09;8.53;;;4.50;;
4533;SDS011;2279;51.448;7.306;2023-07-09T11:08:38;8.97;;;4.60;;
4533;SDS011;2279;51.448;7.306;2023-07-09T11:11:06;4.30;;;4.00;;
4533;SDS011;2279;51.448;7.306;2023-07-09T11:13:40;7.47;;;3.83;;
4533;SDS011;2279;51.448;7.306;2023-07-09T11:16:11;4.80;;;4.03;;
4533;SDS011;2279;51.448;7.306;2023-07-09T11:18:37;9.70;;;3.87;;
4533;SDS011;2279;51.448;7.306;2023-07-09T11:21:04;5.63;;;4.30;;
4533;SDS011;2279;51.448;7.306;2023-07-09T11:23:50;6.10;;;4.30;;
4533;SDS011;2279;51.448;7.306;2023-07-09T11:26:27;4.37;;;4.00;;
4533;SDS011;2279;51.448;7.306;2023-07-09T11:29:09;5.00;;;3.83;;
4533;SDS011;2279;51.448;7.306;2023-07-09T11:31:40;5.27;;;4.10;;
4533;SDS011;2279;51.448;7.306;2023-07-09T11:36:33;4.30;;;3.63;;
4533;SDS011;2279;51.448;7.306;2023-07-09T11:39:00;4.47;;;3.63;;
4533;SDS011;2279;51.448;7.306;2023-07-09T11:41:37;6.40;;;3.73;;
4533;SDS011;2279;51.448;7.306;2023-07-09T11:44:10;4.27;;;3.70;;
4533;SDS011;2279;51.448;7.306;2023-07-09T11:46:40;6.03;;;3.83;;
4533;SDS011;2279;51.448;7.306;2023-07-09T11:49:10;5.80;;;3.27;;
4533;SDS011;2279;51.448;7.306;2023-07-09T11:51:38;4.87;;;3.53;;
4533;SDS011;2279;51.448;7.306;2023-07-09T11:54:07;8.83;;;3.97;;
4533;SDS011;2279;51.448;7.306;2023-07-09T11:56:38;11.10;;;4.03;;
4533;SDS011;2279;51.448;7.306;2023-07-09T11:59:03;4.30;;;3.90;;
4533;SDS011;2279;51.448;7.306;2023-07-09T12:01:37;5.00;;;3.83;;
4533;SDS011;2279;51.448;7.306;2023-07-09T12:04:04;4.50;;;3.97;;
4533;SDS011;2279;51.448;7.306;2023-07-09T12:06:31;5.20;;;4.23;;
4533;SDS011;2279;51.448;7.306;2023-07-09T12:08:58;4.23;;;3.80;;
4533;SDS011;2279;51.448;7.306;2023-07-09T12:11:29;6.97;;;3.90;;
4533;SDS011;2279;51.448;7.306;2023-07-09T12:14:08;4.33;;;3.93;;
4533;SDS011;2279;51.448;7.306;2023-07-09T12:16:38;6.27;;;3.70;;
4533;SDS011;2279;51.448;7.306;2023-07-09T12:19:05;7.50;;;3.87;;
4533;SDS011;2279;51.448;7.306;2023-07-09T12:21:33;4.67;;;4.27;;
4533;SDS011;2279;51.448;7.306;2023-07-09T12:24:00;4.10;;;3.70;;
4533;SDS011;2279;51.448;7.306;2023-07-09T12:26:30;5.90;;;3.73;;
4533;SDS011;2279;51.448;7.306;2023-07-09T12:28:57;5.60;;;3.33;;
4533;SDS011;2279;51.448;7.306;2023-07-09T12:31:30;4.73;;;3.90;;
4533;SDS011;2279;51.448;7.306;2023-07-09T12:33:57;7.47;;;3.80;;
4533;SDS011;2279;51.448;7.306;2023-07-09T12:36:26;4.87;;;3.90;;
4533;SDS011;2279;51.448;7.306;2023-07-09T12:38:53;5.43;;;3.50;;
4533;SDS011;2279;51.448;7.306;2023-07-09T12:41:40;4.30;;;4.00;;
4533;SDS011;2279;51.448;7.306;2023-07-09T12:44:17;4.67;;;4.07;;
4533;SDS011;2279;51.448;7.306;2023-07-09T12:46:43;6.00;;;3.70;;
4533;SDS011;2279;51.448;7.306;2023-07-09T12:49:15;6.43;;;3.73;;
4533;SDS011;2279;51.448;7.306;2023-07-09T12:51:45;3.70;;;3.40;;
4533;SDS011;2279;51.448;7.306;2023-07-09T12:54:13;4.30;;;3.90;;
4533;SDS011;2279;51.448;7.306;2023-07-09T12:56:40;6.67;;;4.03;;
4533;SDS011;2279;51.448;7.306;2023-07-09T12:59:19;6.90;;;4.03;;
4533;SDS011;2279;51.448;7.306;2023-07-09T13:02:28;5.63;;;4.30;;
4533;SDS011;2279;51.448;7.306;2023-07-09T13:04:38;6.20;;;3.77;;
4533;SDS011;2279;51.448;7.306;2023-07-09T13:07:04;5.83;;;4.10;;
4533;SDS011;2279;51.448;7.306;2023-07-09T13:09:31;5.93;;;4.30;;
4533;SDS011;2279;51.448;7.306;2023-07-09T13:11:57;7.30;;;4.07;;
4533;SDS011;2279;51.448;7.306;2023-07-09T13:14:24;4.40;;;4.00;;
4533;SDS011;2279;51.448;7.306;2023-07-09T13:16:51;4.13;;;3.70;;
4533;SDS011;2279;51.448;7.306;2023-07-09T13:19:18;5.60;;;4.40;;
4533;SDS011;2279;51.448;7.306;2023-07-09T13:21:44;4.03;;;3.63;;
4533;SDS011;2279;51.448;7.306;2023-07-09T13:24:44;4.80;;;4.40;;
4533;SDS011;2279;51.448;7.306;2023-07-09T13:27:02;4.50;;;4.03;;
4533;SDS011;2279;51.448;7.306;2023-07-09T13:29:28;4.40;;;4.00;;
4533;SDS011;2279;51.448;7.306;2023-07-09T13:31:54;4.80;;;4.30;;
4533;SDS011;2279;51.448;7.306;2023-07-09T13:34:23;7.03;;;4.17;;
4533;SDS011;2279;51.448;7.306;2023-07-09T13:36:49;6.27;;;4.10;;
4533;SDS011;2279;51.448;7.306;2023-07-09T13:39:15;5.47;;;4.97;;
4533;SDS011;2279;51.448;7.306;2023-07-09T13:41:44;4.97;;;3.60;;
4533;SDS011;2279;51.448;7.306;2023-07-09T13:44:13;11.83;;;4.90;;
4533;SDS011;2279;51.448;7.306;2023-07-09T13:46:39;4.70;;;4.30;;
4533;SDS011;2279;51.448;7.306;2023-07-09T13:49:12;4.90;;;4.20;;
4533;SDS011;2279;51.448;7.306;2023-07-09T13:51:39;4.83;;;4.20;;
4533;SDS011;2279;51.448;7.306;2023-07-09T13:54:09;6.40;;;5.10;;
4533;SDS011;2279;51.448;7.306;2023-07-09T13:56:39;6.23;;;4.40;;
4533;SDS011;2279;51.448;7.306;2023-07-09T13:59:08;4.40;;;3.90;;
4533;SDS011;2279;51.448;7.306;2023-07-09T14:01:37;4.20;;;3.77;;
4533;SDS011;2279;51.448;7.306;2023-07-09T14:04:03;4.50;;;4.10;;
4533;SDS011;2279;51.448;7.306;2023-07-09T14:06:29;5.87;;;4.57;;
4533;SDS011;2279;51.448;7.306;2023-07-09T14:08:55;4.70;;;4.40;;
4533;SDS011;2279;51.448;7.306;2023-07-09T14:11:22;5.30;;;4.90;;
4533;SDS011;2279;51.448;7.306;2023-07-09T14:13:48;5.80;;;4.30;;
4533;SDS011;2279;51.448;7.306;2023-07-09T14:16:14;5.87;;;5.10;;
4533;SDS011;2279;51.448;7.306;2023-07-09T14:18:40;4.83;;;4.20;;
4533;SDS011;2279;51.448;7.306;2023-07-09T14:21:11;5.27;;;4.87;;
4533;SDS011;2279;51.448;7.306;2023-07-09T14:23:38;5.10;;;4.70;;
4533;SDS011;2279;51.448;7.306;2023-07-09T14:26:04;4.57;;;4.13;;
4533;SDS011;2279;51.448;7.306;2023-07-09T14:28:31;5.67;;;3.83;;
4533;SDS011;2279;51.448;7.306;2023-07-09T14:30:56;8.63;;;4.33;;
4533;SDS011;2279;51.448;7.306;2023-07-09T14:33:22;8.80;;;5.00;;
4533;SDS011;2279;51.448;7.306;2023-07-09T14:35:50;6.03;;;4.07;;
4533;SDS011;2279;51.448;7.306;2023-07-09T14:38:20;5.20;;;4.80;;
4533;SDS011;2279;51.448;7.306;2023-07-09T14:40:47;6.40;;;4.70;;
4533;SDS011;2279;51.448;7.306;2023-07-09T14:43:13;5.47;;;4.53;;
4533;SDS011;2279;51.448;7.306;2023-07-09T14:45:39;5.77;;;5.27;;
4533;SDS011;2279;51.448;7.306;2023-07-09T14:48:12;7.67;;;4.90;;
4533;SDS011;2279;51.448;7.306;2023-07-09T14:50:38;7.60;;;4.97;;
4533;SDS011;2279;51.448;7.306;2023-07-09T14:53:09;5.30;;;4.80;;
4533;SDS011;2279;51.448;7.306;2023-07-09T14:55:36;4.67;;;4.27;;
4533;SDS011;2279;51.448;7.306;2023-07-09T14:58:04;4.97;;;4.23;;
4533;SDS011;2279;51.448;7.306;2023-07-09T15:00:33;7.40;;;4.50;;
4533;SDS011;2279;51.448;7.306;2023-07-09T15:02:59;18.03;;;5.07;;
4533;SDS011;2279;51.448;7.306;2023-07-09T15:05:25;20.23;;;5.13;;
4533;SDS011;2279;51.448;7.306;2023-07-09T15:07:52;10.10;;;4.60;;
4533;SDS011;2279;51.448;7.306;2023-07-09T15:10:23;5.30;;;3.93;;
4533;SDS011;2279;51.448;7.306;2023-07-09T15:12:49;18.73;;;5.80;;
4533;SDS011;2279;51.448;7.306;2023-07-09T15:15:30;21.87;;;6.60;;
4533;SDS011;2279;51.448;7.306;2023-07-09T15:17:57;24.27;;;9.17;;
4533;SDS011;2279;51.448;7.306;2023-07-09T15:20:25;20.23;;;8.07;;
4533;SDS011;2279;51.448;7.306;2023-07-09T15:22:52;20.03;;;7.27;;
4533;SDS011;2279;51.448;7.306;2023-07-09T15:25:22;12.03;;;7.10;;
4533;SDS011;2279;51.448;7.306;2023-07-09T15:27:49;17.43;;;6.47;;
4533;SDS011;2279;51.448;7.306;2023-07-09T15:32:42;11.67;;;6.00;;
4533;SDS011;2279;51.448;7.306;2023-07-09T15:35:09;11.10;;;6.77;;
4533;SDS011;2279;51.448;7.306;2023-07-09T15:37:35;13.27;;;6.53;;
4533;SDS011;2279;51.448;7.306;2023-07-09T15:40:01;9.67;;;6.10;;
4533;SDS011;2279;51.448;7.306;2023-07-09T15:42:28;14.47;;;6.27;;
4533;SDS011;2279;51.448;7.306;2023-07-09T15:44:54;10.50;;;6.57;;